sensor_id;sensor_type;location;lat;lon;timestamp;P1;durP1;ratioP1;P2;durP2;ratioP2
2934;SDS011;2462;51.456;7.248;2023-12-14T00:00:29;6.40;;;5.60;;
2934;SDS011;2462;51.456;7.248;2023-12-14T00:02:55;7.40;;;6.00;;
2934;SDS011;2462;51.456;7.248;2023-12-14T00:05:21;6.77;;;5.83;;
2934;SDS011;2462;51.456;7.248;2023-12-14T00:07:47;6.63;;;5.33;;
2934;SDS011;2462;51.456;7.248;2023-12-14T00:10:13;6.00;;;5.40;;
2934;SDS011;2462;51.456;7.248;2023-12-14T00:12:39;7.80;;;5.87;;
2934;SDS011;2462;51.456;7.248;2023-12-14T00:15:05;6.20;;;5.60;;
2934;SDS011;2462;51.456;7.248;2023-12-14T00:17:32;5.37;;;4.83;;
2934;SDS011;2462;51.456;7.248;2023-12-14T00:19:58;6.50;;;5.53;;
2934;SDS011;2462;51.456;7.248;2023-12-14T00:22:23;6.83;;;5.73;;
2934;SDS011;2462;51.456;7.248;2023-12-14T00:24:49;5.93;;;4.80;;
2934;SDS011;2462;51.456;7.248;2023-12-14T00:27:15;5.80;;;5.20;;
2934;SDS011;2462;51.456;7.248;2023-12-14T00:29:41;5.70;;;5.20;;
2934;SDS011;2462;51.456;7.248;2023-12-14T00:32:07;8.13;;;5.33;;
2934;SDS011;2462;51.456;7.248;2023-12-14T00:34:33;6.33;;;5.10;;
2934;SDS011;2462;51.456;7.248;2023-12-14T00:36:59;6.43;;;5.17;;
2934;SDS011;2462;51.456;7.248;2023-12-14T00:39:25;6.93;;;5.60;;
2934;SDS011;2462;51.456;7.248;2023-12-14T00:41:51;6.50;;;5.00;;
2934;SDS011;2462;51.456;7.248;2023-12-14T00:44:17;7.23;;;5.23;;
2934;SDS011;2462;51.456;7.248;2023-12-14T00:46:43;6.03;;;5.40;;
2934;SDS011;2462;51.456;7.248;2023-12-14T00:49:09;9.20;;;5.70;;
2934;SDS011;2462;51.456;7.248;2023-12-14T00:51:35;6.23;;;5.57;;
2934;SDS011;2462;51.456;7.248;2023-12-14T00:54:02;7.30;;;5.90;;
2934;SDS011;2462;51.456;7.248;2023-12-14T00:56:28;5.50;;;4.60;;
2934;SDS011;2462;51.456;7.248;2023-12-14T00:58:54;5.87;;;5.27;;
2934;SDS011;2462;51.456;7.248;2023-12-14T01:01:20;5.23;;;4.53;;
2934;SDS011;2462;51.456;7.248;2023-12-14T01:03:46;6.87;;;5.03;;
2934;SDS011;2462;51.456;7.248;2023-12-14T01:06:12;5.73;;;5.13;;
2934;SDS011;2462;51.456;7.248;2023-12-14T01:08:38;6.67;;;5.27;;
2934;SDS011;2462;51.456;7.248;2023-12-14T01:11:04;7.70;;;5.77;;
2934;SDS011;2462;51.456;7.248;2023-12-14T01:13:30;7.00;;;5.70;;
2934;SDS011;2462;51.456;7.248;2023-12-14T01:15:56;6.10;;;5.50;;
2934;SDS011;2462;51.456;7.248;2023-12-14T01:18:22;6.67;;;5.97;;
2934;SDS011;2462;51.456;7.248;2023-12-14T01:20:49;6.20;;;5.47;;
2934;SDS011;2462;51.456;7.248;2023-12-14T01:23:15;5.93;;;5.10;;
2934;SDS011;2462;51.456;7.248;2023-12-14T01:25:41;5.80;;;4.97;;
2934;SDS011;2462;51.456;7.248;2023-12-14T01:28:07;6.37;;;4.93;;
2934;SDS011;2462;51.456;7.248;2023-12-14T01:30:33;5.97;;;4.63;;
2934;SDS011;2462;51.456;7.248;2023-12-14T01:32:59;5.90;;;4.77;;
2934;SDS011;2462;51.456;7.248;2023-12-14T01:35:25;7.37;;;4.90;;
2934;SDS011;2462;51.456;7.248;2023-12-14T01:37:53;6.30;;;5.70;;
2934;SDS011;2462;51.456;7.248;2023-12-14T01:40:19;5.87;;;4.97;;
2934;SDS011;2462;51.456;7.248;2023-12-14T01:42:45;4.90;;;4.50;;
2934;SDS011;2462;51.456;7.248;2023-12-14T01:45:11;6.20;;;4.20;;
2934;SDS011;2462;51.456;7.248;2023-12-14T01:47:40;6.43;;;4.70;;
2934;SDS011;2462;51.456;7.248;2023-12-14T01:50:06;5.40;;;4.50;;
2934;SDS011;2462;51.456;7.248;2023-12-14T01:52:32;5.10;;;4.17;;
2934;SDS011;2462;51.456;7.248;2023-12-14T01:54:58;4.77;;;4.37;;
2934;SDS011;2462;51.456;7.248;2023-12-14T01:57:24;4.83;;;4.40;;
2934;SDS011;2462;51.456;7.248;2023-12-14T01:59:50;5.10;;;4.63;;
2934;SDS011;2462;51.456;7.248;2023-12-14T02:02:16;7.23;;;4.73;;
2934;SDS011;2462;51.456;7.248;2023-12-14T02:04:42;4.63;;;4.23;;
2934;SDS011;2462;51.456;7.248;2023-12-14T02:07:08;4.80;;;4.27;;
2934;SDS011;2462;51.456;7.248;2023-12-14T02:09:34;5.03;;;4.30;;
2934;SDS011;2462;51.456;7.248;2023-12-14T02:11:59;4.50;;;4.10;;
2934;SDS011;2462;51.456;7.248;2023-12-14T02:14:25;5.97;;;4.50;;
2934;SDS011;2462;51.456;7.248;2023-12-14T02:16:51;4.23;;;3.60;;
2934;SDS011;2462;51.456;7.248;2023-12-14T02:19:17;5.47;;;4.70;;
2934;SDS011;2462;51.456;7.248;2023-12-14T02:21:43;4.80;;;4.20;;
2934;SDS011;2462;51.456;7.248;2023-12-14T02:24:09;4.70;;;4.23;;
2934;SDS011;2462;51.456;7.248;2023-12-14T02:26:35;5.50;;;4.20;;
2934;SDS011;2462;51.456;7.248;2023-12-14T02:29:01;5.10;;;4.20;;
2934;SDS011;2462;51.456;7.248;2023-12-14T02:31:27;4.40;;;4.00;;
2934;SDS011;2462;51.456;7.248;2023-12-14T02:33:53;4.50;;;4.10;;
2934;SDS011;2462;51.456;7.248;2023-12-14T02:36:19;4.63;;;3.70;;
2934;SDS011;2462;51.456;7.248;2023-12-14T02:38:45;4.30;;;3.90;;
2934;SDS011;2462;51.456;7.248;2023-12-14T02:41:11;4.50;;;3.77;;
2934;SDS011;2462;51.456;7.248;2023-12-14T02:43:37;4.53;;;4.13;;
2934;SDS011;2462;51.456;7.248;2023-12-14T02:46:05;4.07;;;3.70;;
2934;SDS011;2462;51.456;7.248;2023-12-14T02:48:31;4.17;;;3.77;;
2934;SDS011;2462;51.456;7.248;2023-12-14T02:50:57;4.30;;;3.90;;
2934;SDS011;2462;51.456;7.248;2023-12-14T02:53:25;4.37;;;3.87;;
2934;SDS011;2462;51.456;7.248;2023-12-14T02:55:51;4.07;;;3.67;;
2934;SDS011;2462;51.456;7.248;2023-12-14T02:58:18;4.47;;;4.03;;
2934;SDS011;2462;51.456;7.248;2023-12-14T03:00:43;4.07;;;3.67;;
2934;SDS011;2462;51.456;7.248;2023-12-14T03:03:10;4.10;;;3.70;;
2934;SDS011;2462;51.456;7.248;2023-12-14T03:05:35;4.30;;;3.90;;
2934;SDS011;2462;51.456;7.248;2023-12-14T03:08:01;4.33;;;3.93;;
2934;SDS011;2462;51.456;7.248;2023-12-14T03:10:27;4.07;;;3.67;;
2934;SDS011;2462;51.456;7.248;2023-12-14T03:12:53;4.83;;;4.33;;
2934;SDS011;2462;51.456;7.248;2023-12-14T03:15:19;4.20;;;3.80;;
2934;SDS011;2462;51.456;7.248;2023-12-14T03:17:45;4.00;;;3.70;;
2934;SDS011;2462;51.456;7.248;2023-12-14T03:20:11;3.87;;;3.47;;
2934;SDS011;2462;51.456;7.248;2023-12-14T03:22:39;5.10;;;4.50;;
2934;SDS011;2462;51.456;7.248;2023-12-14T03:25:05;4.10;;;3.70;;
2934;SDS011;2462;51.456;7.248;2023-12-14T03:27:31;5.20;;;4.37;;
2934;SDS011;2462;51.456;7.248;2023-12-14T03:29:57;4.40;;;3.93;;
2934;SDS011;2462;51.456;7.248;2023-12-14T03:32:23;4.43;;;3.83;;
2934;SDS011;2462;51.456;7.248;2023-12-14T03:34:49;4.83;;;4.43;;
2934;SDS011;2462;51.456;7.248;2023-12-14T03:37:15;4.10;;;3.70;;
2934;SDS011;2462;51.456;7.248;2023-12-14T03:39:41;5.33;;;4.10;;
2934;SDS011;2462;51.456;7.248;2023-12-14T03:42:07;4.40;;;3.80;;
2934;SDS011;2462;51.456;7.248;2023-12-14T03:44:33;4.00;;;3.60;;
2934;SDS011;2462;51.456;7.248;2023-12-14T03:46:59;4.40;;;3.73;;
2934;SDS011;2462;51.456;7.248;2023-12-14T03:49:25;3.80;;;3.50;;
2934;SDS011;2462;51.456;7.248;2023-12-14T03:51:51;4.33;;;3.60;;
2934;SDS011;2462;51.456;7.248;2023-12-14T03:54:17;4.03;;;3.63;;
2934;SDS011;2462;51.456;7.248;2023-12-14T03:56:43;5.67;;;3.77;;
2934;SDS011;2462;51.456;7.248;2023-12-14T03:59:08;4.40;;;4.00;;
2934;SDS011;2462;51.456;7.248;2023-12-14T04:01:34;4.30;;;3.90;;
2934;SDS011;2462;51.456;7.248;2023-12-14T04:04:03;4.87;;;4.37;;
2934;SDS011;2462;51.456;7.248;2023-12-14T04:06:29;7.20;;;4.23;;
2934;SDS011;2462;51.456;7.248;2023-12-14T04:08:55;4.50;;;4.07;;
2934;SDS011;2462;51.456;7.248;2023-12-14T04:11:21;4.37;;;3.97;;
2934;SDS011;2462;51.456;7.248;2023-12-14T04:13:47;4.57;;;4.17;;
2934;SDS011;2462;51.456;7.248;2023-12-14T04:16:15;5.20;;;4.13;;
2934;SDS011;2462;51.456;7.248;2023-12-14T04:18:41;5.47;;;4.97;;
2934;SDS011;2462;51.456;7.248;2023-12-14T04:21:07;4.20;;;3.80;;
2934;SDS011;2462;51.456;7.248;2023-12-14T04:23:33;4.00;;;3.60;;
2934;SDS011;2462;51.456;7.248;2023-12-14T04:25:59;5.20;;;4.70;;
2934;SDS011;2462;51.456;7.248;2023-12-14T04:28:25;4.27;;;3.87;;
2934;SDS011;2462;51.456;7.248;2023-12-14T04:30:51;4.43;;;4.03;;
2934;SDS011;2462;51.456;7.248;2023-12-14T04:33:16;4.43;;;3.80;;
2934;SDS011;2462;51.456;7.248;2023-12-14T04:35:42;4.30;;;3.50;;
2934;SDS011;2462;51.456;7.248;2023-12-14T04:38:08;4.27;;;3.67;;
2934;SDS011;2462;51.456;7.248;2023-12-14T04:40:34;3.87;;;3.50;;
2934;SDS011;2462;51.456;7.248;2023-12-14T04:43:00;3.80;;;3.50;;
2934;SDS011;2462;51.456;7.248;2023-12-14T04:45:27;4.17;;;3.50;;
2934;SDS011;2462;51.456;7.248;2023-12-14T04:47:53;3.40;;;3.10;;
2934;SDS011;2462;51.456;7.248;2023-12-14T04:50:19;4.40;;;3.37;;
2934;SDS011;2462;51.456;7.248;2023-12-14T04:52:45;3.93;;;3.50;;
2934;SDS011;2462;51.456;7.248;2023-12-14T04:55:11;2.90;;;2.70;;
2934;SDS011;2462;51.456;7.248;2023-12-14T04:57:37;3.50;;;3.20;;
2934;SDS011;2462;51.456;7.248;2023-12-14T05:00:04;3.53;;;3.17;;
2934;SDS011;2462;51.456;7.248;2023-12-14T05:02:31;4.30;;;3.27;;
2934;SDS011;2462;51.456;7.248;2023-12-14T05:04:57;3.93;;;3.10;;
2934;SDS011;2462;51.456;7.248;2023-12-14T05:07:23;3.53;;;3.23;;
2934;SDS011;2462;51.456;7.248;2023-12-14T05:09:49;3.80;;;3.00;;
2934;SDS011;2462;51.456;7.248;2023-12-14T05:12:15;3.70;;;3.40;;
2934;SDS011;2462;51.456;7.248;2023-12-14T05:14:41;3.87;;;3.30;;
2934;SDS011;2462;51.456;7.248;2023-12-14T05:17:07;3.63;;;3.33;;
2934;SDS011;2462;51.456;7.248;2023-12-14T05:19:33;2.90;;;2.50;;
2934;SDS011;2462;51.456;7.248;2023-12-14T05:21:59;3.90;;;3.20;;
2934;SDS011;2462;51.456;7.248;2023-12-14T05:24:25;3.20;;;2.90;;
2934;SDS011;2462;51.456;7.248;2023-12-14T05:26:51;3.80;;;3.50;;
2934;SDS011;2462;51.456;7.248;2023-12-14T05:29:17;3.70;;;3.30;;
2934;SDS011;2462;51.456;7.248;2023-12-14T05:31:43;3.00;;;2.70;;
2934;SDS011;2462;51.456;7.248;2023-12-14T05:34:09;3.27;;;2.80;;
2934;SDS011;2462;51.456;7.248;2023-12-14T05:36:35;3.20;;;2.97;;
2934;SDS011;2462;51.456;7.248;2023-12-14T05:39:01;2.67;;;2.33;;
2934;SDS011;2462;51.456;7.248;2023-12-14T05:41:28;2.83;;;2.63;;
2934;SDS011;2462;51.456;7.248;2023-12-14T05:43:54;3.10;;;2.80;;
2934;SDS011;2462;51.456;7.248;2023-12-14T05:46:21;2.90;;;2.60;;
2934;SDS011;2462;51.456;7.248;2023-12-14T05:48:48;3.17;;;2.87;;
2934;SDS011;2462;51.456;7.248;2023-12-14T05:51:25;2.87;;;2.50;;
2934;SDS011;2462;51.456;7.248;2023-12-14T05:53:51;3.63;;;3.00;;
2934;SDS011;2462;51.456;7.248;2023-12-14T05:56:17;3.00;;;2.73;;
2934;SDS011;2462;51.456;7.248;2023-12-14T05:58:43;3.13;;;2.83;;
2934;SDS011;2462;51.456;7.248;2023-12-14T06:01:09;3.20;;;2.90;;
2934;SDS011;2462;51.456;7.248;2023-12-14T06:03:34;2.80;;;2.60;;
2934;SDS011;2462;51.456;7.248;2023-12-14T06:06:00;2.90;;;2.60;;
2934;SDS011;2462;51.456;7.248;2023-12-14T06:08:26;3.47;;;3.17;;
2934;SDS011;2462;51.456;7.248;2023-12-14T06:10:52;3.00;;;2.67;;
2934;SDS011;2462;51.456;7.248;2023-12-14T06:13:18;4.07;;;3.23;;
2934;SDS011;2462;51.456;7.248;2023-12-14T06:15:44;3.17;;;2.87;;
2934;SDS011;2462;51.456;7.248;2023-12-14T06:18:10;4.80;;;3.27;;
2934;SDS011;2462;51.456;7.248;2023-12-14T06:20:36;3.50;;;3.20;;
2934;SDS011;2462;51.456;7.248;2023-12-14T06:23:02;3.43;;;3.13;;
2934;SDS011;2462;51.456;7.248;2023-12-14T06:25:28;3.40;;;3.10;;
2934;SDS011;2462;51.456;7.248;2023-12-14T06:27:54;3.53;;;3.23;;
2934;SDS011;2462;51.456;7.248;2023-12-14T06:30:20;4.17;;;3.30;;
2934;SDS011;2462;51.456;7.248;2023-12-14T06:32:46;4.10;;;3.40;;
2934;SDS011;2462;51.456;7.248;2023-12-14T06:35:11;3.53;;;3.23;;
2934;SDS011;2462;51.456;7.248;2023-12-14T06:37:37;4.30;;;3.20;;
2934;SDS011;2462;51.456;7.248;2023-12-14T06:40:03;4.77;;;3.77;;
2934;SDS011;2462;51.456;7.248;2023-12-14T06:42:30;3.70;;;3.30;;
2934;SDS011;2462;51.456;7.248;2023-12-14T06:44:56;4.20;;;3.80;;
2934;SDS011;2462;51.456;7.248;2023-12-14T06:47:22;3.87;;;3.47;;
2934;SDS011;2462;51.456;7.248;2023-12-14T06:49:48;4.13;;;3.73;;
2934;SDS011;2462;51.456;7.248;2023-12-14T06:52:15;4.40;;;3.67;;
2934;SDS011;2462;51.456;7.248;2023-12-14T06:54:41;3.93;;;3.50;;
2934;SDS011;2462;51.456;7.248;2023-12-14T06:57:07;3.97;;;3.10;;
2934;SDS011;2462;51.456;7.248;2023-12-14T06:59:32;4.60;;;3.93;;
2934;SDS011;2462;51.456;7.248;2023-12-14T07:01:59;4.10;;;3.70;;
2934;SDS011;2462;51.456;7.248;2023-12-14T07:04:24;4.03;;;3.63;;
2934;SDS011;2462;51.456;7.248;2023-12-14T07:06:51;3.50;;;3.20;;
2934;SDS011;2462;51.456;7.248;2023-12-14T07:09:17;3.73;;;3.43;;
2934;SDS011;2462;51.456;7.248;2023-12-14T07:11:43;3.60;;;3.07;;
2934;SDS011;2462;51.456;7.248;2023-12-14T07:14:09;4.10;;;3.70;;
2934;SDS011;2462;51.456;7.248;2023-12-14T07:16:35;5.10;;;4.07;;
2934;SDS011;2462;51.456;7.248;2023-12-14T07:19:02;4.47;;;3.73;;
2934;SDS011;2462;51.456;7.248;2023-12-14T07:21:27;3.93;;;3.53;;
2934;SDS011;2462;51.456;7.248;2023-12-14T07:23:53;3.80;;;3.13;;
2934;SDS011;2462;51.456;7.248;2023-12-14T07:26:19;4.00;;;3.33;;
2934;SDS011;2462;51.456;7.248;2023-12-14T07:28:45;5.17;;;4.20;;
2934;SDS011;2462;51.456;7.248;2023-12-14T07:31:12;4.10;;;3.70;;
2934;SDS011;2462;51.456;7.248;2023-12-14T07:33:38;3.93;;;3.50;;
2934;SDS011;2462;51.456;7.248;2023-12-14T07:36:04;4.40;;;4.00;;
2934;SDS011;2462;51.456;7.248;2023-12-14T07:38:30;4.73;;;4.23;;
2934;SDS011;2462;51.456;7.248;2023-12-14T07:40:56;3.97;;;3.67;;
2934;SDS011;2462;51.456;7.248;2023-12-14T07:43:23;3.73;;;3.43;;
2934;SDS011;2462;51.456;7.248;2023-12-14T07:45:48;3.90;;;3.60;;
2934;SDS011;2462;51.456;7.248;2023-12-14T07:48:14;4.40;;;4.00;;
2934;SDS011;2462;51.456;7.248;2023-12-14T07:50:40;3.83;;;3.27;;
2934;SDS011;2462;51.456;7.248;2023-12-14T07:53:06;4.83;;;3.30;;
2934;SDS011;2462;51.456;7.248;2023-12-14T07:55:32;5.40;;;3.80;;
2934;SDS011;2462;51.456;7.248;2023-12-14T07:57:58;4.20;;;3.17;;
2934;SDS011;2462;51.456;7.248;2023-12-14T08:00:24;4.60;;;3.90;;
2934;SDS011;2462;51.456;7.248;2023-12-14T08:02:50;4.20;;;3.33;;
2934;SDS011;2462;51.456;7.248;2023-12-14T08:05:16;4.67;;;4.07;;
2934;SDS011;2462;51.456;7.248;2023-12-14T08:07:42;4.00;;;3.60;;
2934;SDS011;2462;51.456;7.248;2023-12-14T08:10:08;4.27;;;3.87;;
2934;SDS011;2462;51.456;7.248;2023-12-14T08:12:34;5.00;;;3.70;;
2934;SDS011;2462;51.456;7.248;2023-12-14T08:15:00;3.30;;;3.00;;
2934;SDS011;2462;51.456;7.248;2023-12-14T08:17:26;3.90;;;3.53;;
2934;SDS011;2462;51.456;7.248;2023-12-14T08:19:53;3.67;;;3.37;;
2934;SDS011;2462;51.456;7.248;2023-12-14T08:22:19;5.30;;;4.00;;
2934;SDS011;2462;51.456;7.248;2023-12-14T08:24:46;4.23;;;3.63;;
2934;SDS011;2462;51.456;7.248;2023-12-14T08:27:12;4.13;;;3.40;;
2934;SDS011;2462;51.456;7.248;2023-12-14T08:29:38;4.60;;;3.00;;
2934;SDS011;2462;51.456;7.248;2023-12-14T08:32:04;4.40;;;4.00;;
2934;SDS011;2462;51.456;7.248;2023-12-14T08:34:30;4.20;;;3.30;;
2934;SDS011;2462;51.456;7.248;2023-12-14T08:36:56;5.67;;;4.03;;
2934;SDS011;2462;51.456;7.248;2023-12-14T08:39:22;4.10;;;3.70;;
2934;SDS011;2462;51.456;7.248;2023-12-14T08:41:48;6.07;;;4.57;;
2934;SDS011;2462;51.456;7.248;2023-12-14T08:44:14;3.90;;;3.60;;
2934;SDS011;2462;51.456;7.248;2023-12-14T08:46:41;3.97;;;3.57;;
2934;SDS011;2462;51.456;7.248;2023-12-14T08:49:07;4.37;;;3.90;;
2934;SDS011;2462;51.456;7.248;2023-12-14T08:51:33;5.47;;;4.30;;
2934;SDS011;2462;51.456;7.248;2023-12-14T08:53:59;3.93;;;3.57;;
2934;SDS011;2462;51.456;7.248;2023-12-14T08:56:25;4.00;;;3.60;;
2934;SDS011;2462;51.456;7.248;2023-12-14T08:58:51;3.77;;;3.37;;
2934;SDS011;2462;51.456;7.248;2023-12-14T09:01:21;5.37;;;4.13;;
2934;SDS011;2462;51.456;7.248;2023-12-14T09:03:47;4.00;;;3.60;;
2934;SDS011;2462;51.456;7.248;2023-12-14T09:06:14;4.27;;;3.87;;
2934;SDS011;2462;51.456;7.248;2023-12-14T09:08:40;4.67;;;3.87;;
2934;SDS011;2462;51.456;7.248;2023-12-14T09:11:06;3.37;;;2.90;;
2934;SDS011;2462;51.456;7.248;2023-12-14T09:13:32;4.67;;;4.27;;
2934;SDS011;2462;51.456;7.248;2023-12-14T09:15:58;4.20;;;3.60;;
2934;SDS011;2462;51.456;7.248;2023-12-14T09:18:24;5.30;;;4.40;;
2934;SDS011;2462;51.456;7.248;2023-12-14T09:20:50;4.23;;;3.83;;
2934;SDS011;2462;51.456;7.248;2023-12-14T09:23:16;5.67;;;4.40;;
2934;SDS011;2462;51.456;7.248;2023-12-14T09:25:43;4.93;;;4.17;;
2934;SDS011;2462;51.456;7.248;2023-12-14T09:28:09;4.90;;;3.90;;
2934;SDS011;2462;51.456;7.248;2023-12-14T09:30:35;3.60;;;3.30;;
2934;SDS011;2462;51.456;7.248;2023-12-14T09:33:01;5.57;;;4.33;;
2934;SDS011;2462;51.456;7.248;2023-12-14T09:35:27;4.80;;;4.30;;
2934;SDS011;2462;51.456;7.248;2023-12-14T09:37:53;4.03;;;3.60;;
2934;SDS011;2462;51.456;7.248;2023-12-14T09:40:21;5.10;;;4.33;;
2934;SDS011;2462;51.456;7.248;2023-12-14T09:42:47;5.10;;;4.27;;
2934;SDS011;2462;51.456;7.248;2023-12-14T09:45:13;4.47;;;4.07;;
2934;SDS011;2462;51.456;7.248;2023-12-14T09:47:42;4.97;;;4.47;;
2934;SDS011;2462;51.456;7.248;2023-12-14T09:50:08;4.67;;;4.20;;
2934;SDS011;2462;51.456;7.248;2023-12-14T09:52:34;5.23;;;4.73;;
2934;SDS011;2462;51.456;7.248;2023-12-14T09:55:00;4.40;;;3.83;;
2934;SDS011;2462;51.456;7.248;2023-12-14T09:57:28;5.13;;;4.33;;
2934;SDS011;2462;51.456;7.248;2023-12-14T09:59:55;4.87;;;4.43;;
2934;SDS011;2462;51.456;7.248;2023-12-14T10:02:24;6.20;;;5.10;;
2934;SDS011;2462;51.456;7.248;2023-12-14T10:04:51;5.80;;;4.77;;
2934;SDS011;2462;51.456;7.248;2023-12-14T10:07:18;6.13;;;5.27;;
2934;SDS011;2462;51.456;7.248;2023-12-14T10:09:44;5.70;;;5.10;;
2934;SDS011;2462;51.456;7.248;2023-12-14T10:12:10;6.03;;;5.33;;
2934;SDS011;2462;51.456;7.248;2023-12-14T10:14:36;6.23;;;5.23;;
2934;SDS011;2462;51.456;7.248;2023-12-14T10:17:19;4.90;;;4.40;;
2934;SDS011;2462;51.456;7.248;2023-12-14T10:19:46;7.17;;;4.40;;
2934;SDS011;2462;51.456;7.248;2023-12-14T10:22:15;5.67;;;4.73;;
2934;SDS011;2462;51.456;7.248;2023-12-14T10:24:43;5.87;;;5.20;;
2934;SDS011;2462;51.456;7.248;2023-12-14T10:27:09;5.60;;;5.00;;
2934;SDS011;2462;51.456;7.248;2023-12-14T10:29:39;7.60;;;6.17;;
2934;SDS011;2462;51.456;7.248;2023-12-14T10:32:05;5.93;;;5.20;;
2934;SDS011;2462;51.456;7.248;2023-12-14T10:34:32;5.67;;;5.17;;
2934;SDS011;2462;51.456;7.248;2023-12-14T10:36:58;6.90;;;5.67;;
2934;SDS011;2462;51.456;7.248;2023-12-14T10:39:24;6.73;;;5.93;;
2934;SDS011;2462;51.456;7.248;2023-12-14T10:41:52;6.67;;;5.03;;
2934;SDS011;2462;51.456;7.248;2023-12-14T10:44:20;7.83;;;6.10;;
2934;SDS011;2462;51.456;7.248;2023-12-14T10:46:47;9.90;;;7.77;;
2934;SDS011;2462;51.456;7.248;2023-12-14T10:49:13;13.10;;;9.60;;
2934;SDS011;2462;51.456;7.248;2023-12-14T10:51:40;12.98;;;9.27;;
2934;SDS011;2462;51.456;7.248;2023-12-14T10:54:07;11.87;;;9.20;;
2934;SDS011;2462;51.456;7.248;2023-12-14T10:56:33;15.00;;;9.77;;
2934;SDS011;2462;51.456;7.248;2023-12-14T10:59:00;12.60;;;9.47;;
2934;SDS011;2462;51.456;7.248;2023-12-14T11:01:28;11.93;;;9.00;;
2934;SDS011;2462;51.456;7.248;2023-12-14T11:03:55;11.10;;;8.57;;
2934;SDS011;2462;51.456;7.248;2023-12-14T11:08:52;11.33;;;8.53;;
2934;SDS011;2462;51.456;7.248;2023-12-14T11:11:19;12.03;;;9.23;;
2934;SDS011;2462;51.456;7.248;2023-12-14T11:13:47;11.30;;;9.30;;
2934;SDS011;2462;51.456;7.248;2023-12-14T11:16:15;11.40;;;9.20;;
2934;SDS011;2462;51.456;7.248;2023-12-14T11:18:41;13.20;;;9.00;;
2934;SDS011;2462;51.456;7.248;2023-12-14T11:21:07;12.10;;;9.60;;
2934;SDS011;2462;51.456;7.248;2023-12-14T11:23:35;16.10;;;10.30;;
2934;SDS011;2462;51.456;7.248;2023-12-14T11:26:05;13.67;;;9.83;;
2934;SDS011;2462;51.456;7.248;2023-12-14T11:28:35;13.73;;;9.10;;
2934;SDS011;2462;51.456;7.248;2023-12-14T11:31:02;12.23;;;9.63;;
2934;SDS011;2462;51.456;7.248;2023-12-14T11:33:31;15.97;;;9.40;;
2934;SDS011;2462;51.456;7.248;2023-12-14T11:35:57;12.30;;;9.60;;
2934;SDS011;2462;51.456;7.248;2023-12-14T11:38:24;11.80;;;9.73;;
2934;SDS011;2462;51.456;7.248;2023-12-14T11:40:50;13.43;;;10.07;;
2934;SDS011;2462;51.456;7.248;2023-12-14T11:43:17;13.67;;;9.90;;
2934;SDS011;2462;51.456;7.248;2023-12-14T11:45:45;10.87;;;9.03;;
2934;SDS011;2462;51.456;7.248;2023-12-14T11:48:11;11.70;;;9.47;;
2934;SDS011;2462;51.456;7.248;2023-12-14T11:50:38;10.20;;;8.37;;
2934;SDS011;2462;51.456;7.248;2023-12-14T11:53:04;13.87;;;8.10;;
2934;SDS011;2462;51.456;7.248;2023-12-14T11:55:30;11.60;;;9.27;;
2934;SDS011;2462;51.456;7.248;2023-12-14T11:57:56;10.90;;;7.57;;
2934;SDS011;2462;51.456;7.248;2023-12-14T12:00:23;16.23;;;8.87;;
2934;SDS011;2462;51.456;7.248;2023-12-14T12:02:50;15.23;;;9.20;;
2934;SDS011;2462;51.456;7.248;2023-12-14T12:05:16;12.97;;;8.73;;
2934;SDS011;2462;51.456;7.248;2023-12-14T12:07:44;12.20;;;8.60;;
2934;SDS011;2462;51.456;7.248;2023-12-14T12:10:10;12.57;;;8.50;;
2934;SDS011;2462;51.456;7.248;2023-12-14T12:12:36;10.37;;;9.10;;
2934;SDS011;2462;51.456;7.248;2023-12-14T12:15:03;16.20;;;9.03;;
2934;SDS011;2462;51.456;7.248;2023-12-14T12:17:29;13.27;;;8.07;;
2934;SDS011;2462;51.456;7.248;2023-12-14T12:20:02;12.60;;;8.40;;
2934;SDS011;2462;51.456;7.248;2023-12-14T12:22:28;10.50;;;7.73;;
2934;SDS011;2462;51.456;7.248;2023-12-14T12:24:54;10.33;;;7.37;;
2934;SDS011;2462;51.456;7.248;2023-12-14T12:27:20;9.83;;;7.70;;
2934;SDS011;2462;51.456;7.248;2023-12-14T12:29:46;11.07;;;8.07;;
2934;SDS011;2462;51.456;7.248;2023-12-14T12:32:12;8.23;;;6.70;;
2934;SDS011;2462;51.456;7.248;2023-12-14T12:34:38;9.83;;;7.20;;
2934;SDS011;2462;51.456;7.248;2023-12-14T12:37:04;9.00;;;7.30;;
2934;SDS011;2462;51.456;7.248;2023-12-14T12:39:31;9.20;;;7.13;;
2934;SDS011;2462;51.456;7.248;2023-12-14T12:41:56;9.70;;;6.83;;
2934;SDS011;2462;51.456;7.248;2023-12-14T12:44:22;7.03;;;6.30;;
2934;SDS011;2462;51.456;7.248;2023-12-14T12:46:48;10.60;;;7.13;;
2934;SDS011;2462;51.456;7.248;2023-12-14T12:49:14;9.57;;;7.37;;
2934;SDS011;2462;51.456;7.248;2023-12-14T12:51:40;10.23;;;7.50;;
2934;SDS011;2462;51.456;7.248;2023-12-14T12:54:06;11.33;;;7.27;;
2934;SDS011;2462;51.456;7.248;2023-12-14T12:56:32;8.40;;;7.00;;
2934;SDS011;2462;51.456;7.248;2023-12-14T12:58:58;8.90;;;7.17;;
2934;SDS011;2462;51.456;7.248;2023-12-14T13:01:24;7.90;;;6.47;;
2934;SDS011;2462;51.456;7.248;2023-12-14T13:03:54;9.20;;;7.03;;
2934;SDS011;2462;51.456;7.248;2023-12-14T13:06:21;9.23;;;7.43;;
2934;SDS011;2462;51.456;7.248;2023-12-14T13:08:47;9.47;;;6.37;;
2934;SDS011;2462;51.456;7.248;2023-12-14T13:11:13;10.50;;;6.93;;
2934;SDS011;2462;51.456;7.248;2023-12-14T13:13:39;8.07;;;6.80;;
2934;SDS011;2462;51.456;7.248;2023-12-14T13:16:06;10.30;;;6.70;;
2934;SDS011;2462;51.456;7.248;2023-12-14T13:18:32;9.13;;;6.33;;
2934;SDS011;2462;51.456;7.248;2023-12-14T13:20:58;10.63;;;6.80;;
2934;SDS011;2462;51.456;7.248;2023-12-14T13:23:23;8.73;;;6.93;;
2934;SDS011;2462;51.456;7.248;2023-12-14T13:25:49;8.33;;;6.67;;
2934;SDS011;2462;51.456;7.248;2023-12-14T13:28:15;10.03;;;7.03;;
2934;SDS011;2462;51.456;7.248;2023-12-14T13:30:41;7.97;;;6.40;;
2934;SDS011;2462;51.456;7.248;2023-12-14T13:33:07;6.93;;;6.23;;
2934;SDS011;2462;51.456;7.248;2023-12-14T13:35:36;9.43;;;6.70;;
2934;SDS011;2462;51.456;7.248;2023-12-14T13:38:02;6.83;;;6.13;;
2934;SDS011;2462;51.456;7.248;2023-12-14T13:40:28;9.30;;;6.90;;
2934;SDS011;2462;51.456;7.248;2023-12-14T13:42:54;8.97;;;5.90;;
2934;SDS011;2462;51.456;7.248;2023-12-14T13:45:24;8.10;;;6.83;;
2934;SDS011;2462;51.456;7.248;2023-12-14T13:47:50;9.00;;;7.50;;
2934;SDS011;2462;51.456;7.248;2023-12-14T13:50:16;10.73;;;6.43;;
2934;SDS011;2462;51.456;7.248;2023-12-14T13:52:43;7.60;;;6.33;;
2934;SDS011;2462;51.456;7.248;2023-12-14T13:55:09;7.43;;;6.10;;
2934;SDS011;2462;51.456;7.248;2023-12-14T13:57:34;9.50;;;7.73;;
2934;SDS011;2462;51.456;7.248;2023-12-14T14:00:00;7.70;;;6.10;;
2934;SDS011;2462;51.456;7.248;2023-12-14T14:02:26;6.80;;;5.60;;
2934;SDS011;2462;51.456;7.248;2023-12-14T14:04:53;7.57;;;6.20;;
2934;SDS011;2462;51.456;7.248;2023-12-14T14:07:19;7.50;;;6.47;;
2934;SDS011;2462;51.456;7.248;2023-12-14T14:09:47;8.73;;;7.47;;
2934;SDS011;2462;51.456;7.248;2023-12-14T14:12:13;6.83;;;6.10;;
2934;SDS011;2462;51.456;7.248;2023-12-14T14:14:39;9.00;;;6.50;;
2934;SDS011;2462;51.456;7.248;2023-12-14T14:17:05;7.00;;;5.93;;
2934;SDS011;2462;51.456;7.248;2023-12-14T14:19:32;7.60;;;5.87;;
2934;SDS011;2462;51.456;7.248;2023-12-14T14:21:58;6.67;;;5.60;;
2934;SDS011;2462;51.456;7.248;2023-12-14T14:24:24;6.90;;;5.70;;
2934;SDS011;2462;51.456;7.248;2023-12-14T14:26:50;6.23;;;5.57;;
2934;SDS011;2462;51.456;7.248;2023-12-14T14:29:17;11.13;;;6.40;;
2934;SDS011;2462;51.456;7.248;2023-12-14T14:31:43;7.23;;;5.83;;
2934;SDS011;2462;51.456;7.248;2023-12-14T14:34:09;6.33;;;5.60;;
2934;SDS011;2462;51.456;7.248;2023-12-14T14:36:35;7.27;;;6.53;;
2934;SDS011;2462;51.456;7.248;2023-12-14T14:39:01;8.00;;;6.03;;
2934;SDS011;2462;51.456;7.248;2023-12-14T14:41:29;7.67;;;6.80;;
2934;SDS011;2462;51.456;7.248;2023-12-14T14:43:55;6.90;;;5.87;;
2934;SDS011;2462;51.456;7.248;2023-12-14T14:46:22;8.07;;;5.70;;
2934;SDS011;2462;51.456;7.248;2023-12-14T14:48:48;9.30;;;5.47;;
2934;SDS011;2462;51.456;7.248;2023-12-14T14:51:14;6.10;;;5.50;;
2934;SDS011;2462;51.456;7.248;2023-12-14T14:53:40;7.73;;;4.83;;
2934;SDS011;2462;51.456;7.248;2023-12-14T14:56:09;5.63;;;4.57;;
2934;SDS011;2462;51.456;7.248;2023-12-14T14:58:35;5.70;;;5.20;;
2934;SDS011;2462;51.456;7.248;2023-12-14T15:01:01;5.40;;;4.90;;
2934;SDS011;2462;51.456;7.248;2023-12-14T15:03:27;6.33;;;4.87;;
2934;SDS011;2462;51.456;7.248;2023-12-14T15:05:53;6.93;;;6.23;;
2934;SDS011;2462;51.456;7.248;2023-12-14T15:08:19;5.90;;;5.30;;